Time;durP1;ratioP1;P1;durP2;ratioP2;P2;SDS_P1;SDS_P2;PMS_P1;PMS_P2;Temp;Humidity;BMP_temperature;BMP_pressure;BME280_temperature;BME280_humidity;BME280_pressure;Samples;Min_cycle;Max_cycle;Signal;HPM_P1;HPM_P2
2022/06/27 00:00:19;;;;;;;;;;;;;;;;;;5057694;28;19912;-42
2022/06/27 00:02:44;;;;;;;;;;;;;;;;;;5057867;28;19909;-42
2022/06/27 00:05:09;;;;;;;;;;;;;;;;;;5057948;28;19909;-42
2022/06/27 00:07:34;;;;;;;;;;;;;;;;;;5057514;28;19962;-42
2022/06/27 00:09:59;;;;;;;;;;;;;;;;;;5057519;28;19912;-42
2022/06/27 00:12:24;;;;;;;;;;;;;;;;;;5056975;28;19995;-42
2022/06/27 00:14:49;;;;;;;;;;;;;;;;;;5057682;28;20351;-42
2022/06/27 00:17:15;;;;;;;;;;;;;;;;;;5057687;28;19912;-42
2022/06/27 00:19:40;;;;;;;;;;;;;;;;;;5057177;28;20287;-42
2022/06/27 00:22:05;;;;;;;;;;;;;;;;;;5057585;28;20360;-42
2022/06/27 00:24:30;;;;;;;;;;;;;;;;;;5056634;28;20003;-42
2022/06/27 00:26:55;;;;;;;;;;;;;;;;;;5057445;28;20386;-41
2022/06/27 00:29:20;;;;;;;;;;;;;;;;;;5057135;28;19931;-42
2022/06/27 00:31:45;;;;;;;;;;;;;;;;;;5057440;28;19915;-41
2022/06/27 00:34:10;;;;;;;;;;;;;;;;;;5057029;28;19913;-41
2022/06/27 00:36:35;;;;;;;;;;;;;;;;;;5057397;28;19909;-42
2022/06/27 00:39:01;;;;;;;;;;;;;;;;;;5057098;28;19954;-41
2022/06/27 00:41:26;;;;;;;;;;;;;;;;;;5057306;28;20257;-42
2022/06/27 00:43:51;;;;;;;;;;;;;;;;;;5057141;28;19927;-41
2022/06/27 00:46:16;;;;;;;;;;;;;;;;;;5056824;28;19955;-42
2022/06/27 00:48:41;;;;;;;;;;;;;;;;;;5056988;28;19916;-42
2022/06/27 00:51:06;;;;;;;;;;;;;;;;;;5056534;28;19915;-42
2022/06/27 00:53:32;;;;;;;;;;;;;;;;;;5056682;28;20338;-41
2022/06/27 00:55:57;;;;;;;;;;;;;;;;;;5056867;28;20360;-41
2022/06/27 00:58:22;;;;;;;;;;;;;;;;;;5056929;28;19908;-42
2022/06/27 01:00:47;;;;;;;;;;;;;;;;;;5038999;28;19909;-41
2022/06/27 01:03:13;;;;;;;;;;;;;;;;;;5056582;28;20364;-41
2022/06/27 01:05:38;;;;;;;;;;;;;;;;;;5038835;28;19912;-42
2022/06/27 01:08:03;;;;;;;;;;;;;;;;;;5056432;28;19913;-42
2022/06/27 01:10:28;;;;;;;;;;;;;;;;;;5056692;28;19913;-42
2022/06/27 01:12:53;;;;;;;;;;;;;;;;;;5038695;28;19968;-41
2022/06/27 01:15:18;;;;;;;;;;;;;;;;;;5056409;28;19951;-42
2022/06/27 01:17:43;;;;;;;;;;;;;;;;;;5056628;28;19913;-42
2022/06/27 01:20:08;;;;;;;;;;;;;;;;;;5056558;28;19960;-42
2022/06/27 01:22:34;;;;;;;;;;;;;;;;;;5056415;28;20007;-42
2022/06/27 01:24:59;;;;;;;;;;;;;;;;;;5056239;28;19912;-41
2022/06/27 01:27:24;;;;;;;;;;;;;;;;;;5056435;28;20348;-41
2022/06/27 01:29:49;;;;;;;;;;;;;;;;;;5038335;28;19916;-43
2022/06/27 01:32:14;;;;;;;;;;;;;;;;;;5056019;28;19912;-43
2022/06/27 01:34:39;;;;;;;;;;;;;;;;;;5055808;28;19921;-43
2022/06/27 01:37:04;;;;;;;;;;;;;;;;;;5056262;28;19916;-43
2022/06/27 01:39:29;;;;;;;;;;;;;;;;;;5056095;28;20042;-42
2022/06/27 01:41:55;;;;;;;;;;;;;;;;;;5056407;28;20356;-43
2022/06/27 01:44:20;;;;;;;;;;;;;;;;;;5055320;28;19909;-42
2022/06/27 01:46:45;;;;;;;;;;;;;;;;;;5055499;28;19919;-44
2022/06/27 01:49:10;;;;;;;;;;;;;;;;;;5055789;28;19951;-43
2022/06/27 01:51:35;;;;;;;;;;;;;;;;;;5055582;28;19909;-42
2022/06/27 01:54:00;;;;;;;;;;;;;;;;;;5055725;28;19912;-42
2022/06/27 01:56:25;;;;;;;;;;;;;;;;;;5055708;28;19919;-41
2022/06/27 01:58:52;;;;;;;;;;;;;;;;;;5055826;28;19909;-40
2022/06/27 02:01:17;;;;;;;;;;;;;;;;;;5056198;28;20291;-41
2022/06/27 02:03:43;;;;;;;;;;;;;;;;;;5055090;28;19909;-41
2022/06/27 02:06:08;;;;;;;;;;;;;;;;;;5055975;28;19999;-41
2022/06/27 02:08:33;;;;;;;;;;;;;;;;;;5055868;28;19997;-41
2022/06/27 02:10:58;;;;;;;;;;;;;;;;;;5053358;28;19913;-42
2022/06/27 02:13:23;;;;;;;;;;;;;;;;;;5054975;28;20015;-41
2022/06/27 02:15:48;;;;;;;;;;;;;;;;;;5052564;28;19913;-42
2022/06/27 02:18:13;;;;;;;;;;;;;;;;;;5055266;28;20378;-41
2022/06/27 02:20:38;;;;;;;;;;;;;;;;;;5055275;28;19986;-41
2022/06/27 02:23:03;;;;;;;;;;;;;;;;;;5055363;28;19948;-42
2022/06/27 02:25:29;;;;;;;;;;;;;;;;;;5055218;28;19916;-43
2022/06/27 02:27:54;;;;;;;;;;;;;;;;;;5054184;28;19975;-42
2022/06/27 02:30:19;;;;;;;;;;;;;;;;;;5055410;28;20390;-41
2022/06/27 02:32:44;;;;;;;;;;;;;;;;;;5055114;28;19919;-42
2022/06/27 02:35:10;;;;;;;;;;;;;;;;;;5055322;28;20011;-42
2022/06/27 02:37:35;;;;;;;;;;;;;;;;;;5055484;28;19913;-42
2022/06/27 02:40:00;;;;;;;;;;;;;;;;;;5055446;28;20280;-42
2022/06/27 02:42:26;;;;;;;;;;;;;;;;;;5055403;28;19909;-42
2022/06/27 02:44:51;;;;;;;;;;;;;;;;;;5055122;28;19955;-43
2022/06/27 02:47:16;;;;;;;;;;;;;;;;;;5055212;28;19956;-42
2022/06/27 02:49:41;;;;;;;;;;;;;;;;;;5055214;28;19909;-41
2022/06/27 02:52:06;;;;;;;;;;;;;;;;;;5055249;28;19963;-42
2022/06/27 02:54:31;;;;;;;;;;;;;;;;;;5054583;28;19913;-41
2022/06/27 02:56:56;;;;;;;;;;;;;;;;;;5057698;28;19959;-43
2022/06/27 02:59:21;;;;;;;;;;;;;;;;;;5058004;28;20000;-42
2022/06/27 03:01:46;;;;;;;;;;;;;;;;;;5058849;28;19908;-42
2022/06/27 03:04:12;;;;;;;;;;;;;;;;;;5059050;28;19909;-42
2022/06/27 03:06:37;;;;;;;;;;;;;;;;;;5058660;28;20348;-42
2022/06/27 03:09:02;;;;;;;;;;;;;;;;;;5058621;28;19909;-42
2022/06/27 03:11:27;;;;;;;;;;;;;;;;;;5058968;28;19995;-42
2022/06/27 03:13:52;;;;;;;;;;;;;;;;;;5059200;28;19975;-42
2022/06/27 03:16:17;;;;;;;;;;;;;;;;;;5058134;28;19909;-42
2022/06/27 03:18:42;;;;;;;;;;;;;;;;;;5058821;28;20276;-42
2022/06/27 03:21:08;;;;;;;;;;;;;;;;;;5058221;28;19924;-42
2022/06/27 03:23:33;;;;;;;;;;;;;;;;;;5058499;28;19913;-42
2022/06/27 03:25:58;;;;;;;;;;;;;;;;;;5058748;28;20326;-42
2022/06/27 03:28:23;;;;;;;;;;;;;;;;;;5058511;28;20443;-42
2022/06/27 03:30:48;;;;;;;;;;;;;;;;;;5058588;28;20368;-41
2022/06/27 03:33:13;;;;;;;;;;;;;;;;;;5058231;28;19947;-41
2022/06/27 03:35:38;;;;;;;;;;;;;;;;;;5058344;28;19939;-42
2022/06/27 03:38:03;;;;;;;;;;;;;;;;;;5058524;28;20391;-43
2022/06/27 03:40:29;;;;;;;;;;;;;;;;;;5058453;28;20322;-42
2022/06/27 03:42:54;;;;;;;;;;;;;;;;;;5058200;28;19909;-42
2022/06/27 03:45:19;;;;;;;;;;;;;;;;;;5058022;28;19909;-42
2022/06/27 03:47:44;;;;;;;;;;;;;;;;;;5058132;28;19947;-41
2022/06/27 03:50:09;;;;;;;;;;;;;;;;;;5058317;28;20317;-42
2022/06/27 03:52:34;;;;;;;;;;;;;;;;;;5058381;28;19909;-42
2022/06/27 03:55:00;;;;;;;;;;;;;;;;;;5058198;28;19913;-42
2022/06/27 03:57:25;;;;;;;;;;;;;;;;;;5058312;28;20339;-42
2022/06/27 03:59:50;;;;;;;;;;;;;;;;;;5058178;28;20337;-41
2022/06/27 04:02:16;;;;;;;;;;;;;;;;;;5057733;28;19909;-43
2022/06/27 04:04:41;;;;;;;;;;;;;;;;;;5058077;28;19935;-41
2022/06/27 04:07:06;;;;;;;;;;;;;;;;;;5057648;28;19909;-41
2022/06/27 04:09:31;;;;;;;;;;;;;;;;;;5057577;28;19909;-42
2022/06/27 04:11:56;;;;;;;;;;;;;;;;;;5057792;28;19908;-42
2022/06/27 04:14:21;;;;;;;;;;;;;;;;;;5057939;28;19913;-42
2022/06/27 04:16:46;;;;;;;;;;;;;;;;;;5057945;28;19908;-42
2022/06/27 04:19:12;;;;;;;;;;;;;;;;;;5057556;28;19908;-42
2022/06/27 04:21:37;;;;;;;;;;;;;;;;;;5057597;28;19913;-42
2022/06/27 04:24:02;;;;;;;;;;;;;;;;;;5058080;28;19909;-41
2022/06/27 04:26:27;;;;;;;;;;;;;;;;;;5057858;28;19913;-43
2022/06/27 04:28:52;;;;;;;;;;;;;;;;;;5057583;28;19909;-42
2022/06/27 04:31:18;;;;;;;;;;;;;;;;;;5057306;28;19919;-41
2022/06/27 04:33:44;;;;;;;;;;;;;;;;;;5057302;28;19917;-42
2022/06/27 04:36:09;;;;;;;;;;;;;;;;;;5057601;28;19932;-43
2022/06/27 04:38:34;;;;;;;;;;;;;;;;;;5057606;28;19974;-41
2022/06/27 04:40:59;;;;;;;;;;;;;;;;;;5057270;28;19909;-43
2022/06/27 04:43:26;;;;;;;;;;;;;;;;;;5057416;28;20359;-42
2022/06/27 04:45:52;;;;;;;;;;;;;;;;;;5057362;28;19909;-42
2022/06/27 04:48:18;;;;;;;;;;;;;;;;;;5057534;28;19912;-41
2022/06/27 04:50:43;;;;;;;;;;;;;;;;;;5056280;28;20375;-43
2022/06/27 04:53:09;;;;;;;;;;;;;;;;;;5057020;28;19916;-41
2022/06/27 04:55:34;;;;;;;;;;;;;;;;;;5056975;28;19909;-41
2022/06/27 04:57:59;;;;;;;;;;;;;;;;;;5057537;28;19908;-41
2022/06/27 05:00:24;;;;;;;;;;;;;;;;;;5056718;28;19909;-42
2022/06/27 05:02:50;;;;;;;;;;;;;;;;;;5055695;28;19962;-42
2022/06/27 05:05:15;;;;;;;;;;;;;;;;;;5056910;28;20356;-41
2022/06/27 05:07:43;;;;;;;;;;;;;;;;;;5056876;28;19958;-42
2022/06/27 05:10:08;;;;;;;;;;;;;;;;;;5056669;28;19909;-42
2022/06/27 05:12:33;;;;;;;;;;;;;;;;;;5057088;28;19909;-42
2022/06/27 05:14:59;;;;;;;;;;;;;;;;;;5023844;28;19913;-42
2022/06/27 05:17:27;;;;;;;;;;;;;;;;;;5036905;28;19909;-42
2022/06/27 05:19:52;;;;;;;;;;;;;;;;;;5035630;28;19921;-41
2022/06/27 05:22:18;;;;;;;;;;;;;;;;;;5036476;28;19910;-42
2022/06/27 05:24:43;;;;;;;;;;;;;;;;;;5050626;28;19956;-45
2022/06/27 05:27:09;;;;;;;;;;;;;;;;;;5056081;28;19913;-46
2022/06/27 05:29:34;;;;;;;;;;;;;;;;;;5049747;28;19913;-46
2022/06/27 05:31:59;;;;;;;;;;;;;;;;;;5049240;28;19928;-45
2022/06/27 05:34:25;;;;;;;;;;;;;;;;;;5041736;28;20360;-46
2022/06/27 05:36:50;;;;;;;;;;;;;;;;;;5047034;28;20216;-45
2022/06/27 05:39:15;;;;;;;;;;;;;;;;;;5049927;28;19913;-46
2022/06/27 05:41:41;;;;;;;;;;;;;;;;;;5047009;28;19913;-44
2022/06/27 05:44:06;;;;;;;;;;;;;;;;;;5046648;28;19956;-46
2022/06/27 05:46:32;;;;;;;;;;;;;;;;;;5041523;28;19913;-45
2022/06/27 05:48:57;;;;;;;;;;;;;;;;;;5045554;28;20438;-45
2022/06/27 05:51:23;;;;;;;;;;;;;;;;;;5046212;28;19924;-45
2022/06/27 05:53:49;;;;;;;;;;;;;;;;;;5039740;28;19924;-45
2022/06/27 05:56:15;;;;;;;;;;;;;;;;;;5035070;28;19921;-45
2022/06/27 05:58:41;;;;;;;;;;;;;;;;;;5021976;28;19921;-45
2022/06/27 06:01:06;;;;;;;;;;;;;;;;;;5018451;28;19921;-46
2022/06/27 06:03:33;;;;;;;;;;;;;;;;;;5018491;28;20330;-44
2022/06/27 06:05:58;;;;;;;;;;;;;;;;;;5020167;28;19927;-45
2022/06/27 06:08:25;;;;;;;;;;;;;;;;;;5021621;28;19921;-45
2022/06/27 06:10:50;;;;;;;;;;;;;;;;;;5012400;28;20628;-45
2022/06/27 06:13:15;;;;;;;;;;;;;;;;;;4984855;28;20439;-45
2022/06/27 06:15:41;;;;;;;;;;;;;;;;;;4958033;28;20461;-45
2022/06/27 06:18:06;;;;;;;;;;;;;;;;;;4883372;28;20023;-46
2022/06/27 06:20:32;;;;;;;;;;;;;;;;;;4813273;28;21691;-48
2022/06/27 06:22:57;;;;;;;;;;;;;;;;;;4791384;28;20898;-45
2022/06/27 06:25:23;;;;;;;;;;;;;;;;;;4714504;28;19921;-47
2022/06/27 06:27:48;;;;;;;;;;;;;;;;;;4594531;28;21374;-48
2022/06/27 06:30:13;;;;;;;;;;;;;;;;;;4515377;28;23045;-48
2022/06/27 06:32:38;;;;;;;;;;;;;;;;;;4606487;28;20285;-47
2022/06/27 06:35:04;;;;;;;;;;;;;;;;;;4661684;28;25620;-47
2022/06/27 06:37:29;;;;;;;;;;;;;;;;;;4680101;28;19936;-47
2022/06/27 06:39:54;;;;;;;;;;;;;;;;;;4743452;28;21544;-48
2022/06/27 06:42:19;;;;;;;;;;;;;;;;;;4805447;28;20097;-47
2022/06/27 06:44:45;;;;;;;;;;;;;;;;;;4821875;28;19924;-47
2022/06/27 06:47:12;;;;;;;;;;;;;;;;;;4787622;28;21943;-48
2022/06/27 06:49:39;;;;;;;;;;;;;;;;;;4826468;28;22024;-46
2022/06/27 06:52:04;;;;;;;;;;;;;;;;;;4846441;28;20415;-49
2022/06/27 06:54:30;;;;;;;;;;;;;;;;;;4793296;28;25648;-46
2022/06/27 06:56:57;;;;;;;;;;;;;;;;;;4799414;28;21059;-48
2022/06/27 06:59:22;;;;;;;;;;;;;;;;;;4798939;28;23916;-47
2022/06/27 07:01:47;;;;;;;;;;;;;;;;;;4801899;28;26549;-48
2022/06/27 07:04:12;;;;;;;;;;;;;;;;;;4799536;28;22813;-47
2022/06/27 07:06:38;;;;;;;;;;;;;;;;;;4780104;28;21382;-47
2022/06/27 07:09:03;;;;;;;;;;;;;;;;;;4737133;28;23265;-47
2022/06/27 07:11:29;;;;;;;;;;;;;;;;;;4737216;28;40463;-47
2022/06/27 07:13:55;;;;;;;;;;;;;;;;;;4714978;28;24279;-48
2022/06/27 07:16:20;;;;;;;;;;;;;;;;;;4703071;28;21162;-48
2022/06/27 07:18:46;;;;;;;;;;;;;;;;;;4646768;28;21628;-49
2022/06/27 07:21:12;;;;;;;;;;;;;;;;;;4497562;28;22598;-48
2022/06/27 07:23:37;;;;;;;;;;;;;;;;;;4402119;28;21579;-46
2022/06/27 07:26:03;;;;;;;;;;;;;;;;;;4593543;28;24989;-47
2022/06/27 07:28:29;;;;;;;;;;;;;;;;;;4622660;28;39720;-48
2022/06/27 07:30:58;;;;;;;;;;;;;;;;;;4681338;28;21906;-47
2022/06/27 07:33:24;;;;;;;;;;;;;;;;;;4694582;28;24571;-47
2022/06/27 07:35:49;;;;;;;;;;;;;;;;;;4658209;28;24930;-48
2022/06/27 07:38:14;;;;;;;;;;;;;;;;;;4725673;28;24181;-46
2022/06/27 07:40:39;;;;;;;;;;;;;;;;;;4746038;28;28735;-47
2022/06/27 07:43:05;;;;;;;;;;;;;;;;;;4725699;28;34936;-47
2022/06/27 07:45:31;;;;;;;;;;;;;;;;;;4711014;28;35704;-47
2022/06/27 07:47:56;;;;;;;;;;;;;;;;;;4755517;28;30548;-47
2022/06/27 07:50:42;;;;;;;;;;;;;;;;;;4745717;28;28518;-47
2022/06/27 07:53:17;;;;;;;;;;;;;;;;;;4716875;28;34125;-46
2022/06/27 07:55:42;;;;;;;;;;;;;;;;;;4722968;28;35062;-46
2022/06/27 07:58:07;;;;;;;;;;;;;;;;;;4730098;28;40143;-46
2022/06/27 08:00:33;;;;;;;;;;;;;;;;;;4727165;28;29286;-45
2022/06/27 08:02:58;;;;;;;;;;;;;;;;;;4668360;28;37936;-46
2022/06/27 08:05:24;;;;;;;;;;;;;;;;;;4653875;28;35286;-44
2022/06/27 08:07:49;;;;;;;;;;;;;;;;;;4646253;28;24322;-45
2022/06/27 08:10:15;;;;;;;;;;;;;;;;;;4600822;28;20620;-45
2022/06/27 08:12:40;;;;;;;;;;;;;;;;;;4442398;28;22124;-45
2022/06/27 08:15:05;;;;;;;;;;;;;;;;;;4565688;28;21470;-46
2022/06/27 08:17:30;;;;;;;;;;;;;;;;;;4658689;28;19925;-47
2022/06/27 08:19:59;;;;;;;;;;;;;;;;;;4779813;22;21367;-45
2022/06/27 08:22:25;;;;;;;;;;;;;;;;;;4791394;28;20095;-47
2022/06/27 08:24:50;;;;;;;;;;;;;;;;;;4781996;28;22154;-45
2022/06/27 08:27:16;;;;;;;;;;;;;;;;;;4729607;28;23303;-47
2022/06/27 08:29:41;;;;;;;;;;;;;;;;;;4586132;28;20065;-45
2022/06/27 08:32:07;;;;;;;;;;;;;;;;;;4536965;28;26841;-47
2022/06/27 08:34:33;;;;;;;;;;;;;;;;;;4690801;28;31451;-45
2022/06/27 08:36:58;;;;;;;;;;;;;;;;;;4775803;28;30034;-45
2022/06/27 08:39:24;;;;;;;;;;;;;;;;;;4824700;28;25487;-46
2022/06/27 08:41:50;;;;;;;;;;;;;;;;;;4841706;28;33901;-45
2022/06/27 08:44:16;;;;;;;;;;;;;;;;;;4811023;28;21927;-46
2022/06/27 08:46:46;;;;;;;;;;;;;;;;;;4819043;28;30129;-47
2022/06/27 08:49:12;;;;;;;;;;;;;;;;;;4829194;28;24463;-50
2022/06/27 08:51:37;;;;;;;;;;;;;;;;;;4833018;28;27874;-46
2022/06/27 08:54:02;;;;;;;;;;;;;;;;;;4831191;28;19928;-47
2022/06/27 08:56:29;;;;;;;;;;;;;;;;;;4803255;28;30584;-44
2022/06/27 08:58:55;;;;;;;;;;;;;;;;;;4818083;28;30308;-44
2022/06/27 09:01:26;;;;;;;;;;;;;;;;;;4820604;28;25020;-45
2022/06/27 09:03:56;;;;;;;;;;;;;;;;;;4795910;28;26413;-45
2022/06/27 09:06:21;;;;;;;;;;;;;;;;;;4792571;28;26631;-46
2022/06/27 09:08:46;;;;;;;;;;;;;;;;;;4780268;28;34359;-44
2022/06/27 09:11:11;;;;;;;;;;;;;;;;;;4774249;28;35173;-46
2022/06/27 09:13:37;;;;;;;;;;;;;;;;;;4789756;28;38317;-45
2022/06/27 09:16:02;;;;;;;;;;;;;;;;;;4773609;28;41571;-45
2022/06/27 09:18:28;;;;;;;;;;;;;;;;;;4762186;28;41458;-45
2022/06/27 09:20:53;;;;;;;;;;;;;;;;;;4747627;28;34067;-46
2022/06/27 09:23:19;;;;;;;;;;;;;;;;;;4601518;28;40157;-45
2022/06/27 09:25:45;;;;;;;;;;;;;;;;;;4465209;28;40893;-46
2022/06/27 09:28:10;;;;;;;;;;;;;;;;;;4609467;28;30967;-47
2022/06/27 09:30:36;;;;;;;;;;;;;;;;;;4679826;28;32538;-47
2022/06/27 09:33:04;;;;;;;;;;;;;;;;;;4677182;28;22686;-47
2022/06/27 09:35:31;;;;;;;;;;;;;;;;;;4707148;28;29422;-47
2022/06/27 09:37:56;;;;;;;;;;;;;;;;;;4680432;28;24752;-47
2022/06/27 09:40:21;;;;;;;;;;;;;;;;;;4712663;28;33803;-46
2022/06/27 09:42:46;;;;;;;;;;;;;;;;;;4753300;28;33455;-46
2022/06/27 09:45:13;;;;;;;;;;;;;;;;;;4736249;28;35600;-47
2022/06/27 09:47:38;;;;;;;;;;;;;;;;;;4739553;28;33586;-47
2022/06/27 09:50:04;;;;;;;;;;;;;;;;;;4757129;28;38005;-46
2022/06/27 09:52:29;;;;;;;;;;;;;;;;;;4734795;28;36242;-47
2022/06/27 09:54:54;;;;;;;;;;;;;;;;;;4730488;28;33609;-47
2022/06/27 09:57:20;;;;;;;;;;;;;;;;;;4742267;28;40692;-46
2022/06/27 09:59:45;;;;;;;;;;;;;;;;;;4757302;28;34874;-49
2022/06/27 10:02:10;;;;;;;;;;;;;;;;;;4732387;28;36452;-49
2022/06/27 10:04:37;;;;;;;;;;;;;;;;;;4755025;28;34367;-47
2022/06/27 10:07:02;;;;;;;;;;;;;;;;;;4778292;28;39190;-46
2022/06/27 10:09:29;;;;;;;;;;;;;;;;;;4754670;28;20018;-47
2022/06/27 10:11:54;;;;;;;;;;;;;;;;;;4511983;28;26226;-46
2022/06/27 10:14:19;;;;;;;;;;;;;;;;;;4444684;28;37739;-48
2022/06/27 10:16:45;;;;;;;;;;;;;;;;;;4637112;28;42000;-45
2022/06/27 10:19:10;;;;;;;;;;;;;;;;;;4682871;28;24495;-48
2022/06/27 10:21:35;;;;;;;;;;;;;;;;;;4739557;28;35881;-44
2022/06/27 10:24:00;;;;;;;;;;;;;;;;;;4773342;28;36372;-46
2022/06/27 10:26:25;;;;;;;;;;;;;;;;;;4772370;28;39950;-47
2022/06/27 10:28:50;;;;;;;;;;;;;;;;;;4747763;28;32572;-45
2022/06/27 10:31:16;;;;;;;;;;;;;;;;;;4755673;28;40936;-46
2022/06/27 10:33:42;;;;;;;;;;;;;;;;;;4760410;28;29141;-45
2022/06/27 10:36:15;;;;;;;;;;;;;;;;;;4730284;28;31731;-46
2022/06/27 10:38:41;;;;;;;;;;;;;;;;;;4573595;28;33168;-46
2022/06/27 10:41:06;;;;;;;;;;;;;;;;;;4661675;28;31965;-46
2022/06/27 10:43:31;;;;;;;;;;;;;;;;;;4699492;28;34732;-46
2022/06/27 10:45:56;;;;;;;;;;;;;;;;;;4743211;28;27408;-46
2022/06/27 10:48:21;;;;;;;;;;;;;;;;;;4760480;28;31488;-46
2022/06/27 10:50:47;;;;;;;;;;;;;;;;;;4776378;28;33150;-46
2022/06/27 10:53:12;;;;;;;;;;;;;;;;;;4794761;28;28913;-48
2022/06/27 10:55:37;;;;;;;;;;;;;;;;;;4778619;28;25931;-47
2022/06/27 10:58:02;;;;;;;;;;;;;;;;;;4750193;28;29187;-47
2022/06/27 11:00:27;;;;;;;;;;;;;;;;;;4723881;28;21284;-47
2022/06/27 11:02:52;;;;;;;;;;;;;;;;;;4648578;28;32874;-46
2022/06/27 11:05:17;;;;;;;;;;;;;;;;;;4780112;28;27908;-47
2022/06/27 11:07:43;;;;;;;;;;;;;;;;;;4782632;28;19921;-48
2022/06/27 11:10:08;;;;;;;;;;;;;;;;;;4801969;28;29787;-46
2022/06/27 11:12:35;;;;;;;;;;;;;;;;;;4823447;28;24213;-45
2022/06/27 11:15:00;;;;;;;;;;;;;;;;;;4820653;28;20592;-46
2022/06/27 11:17:26;;;;;;;;;;;;;;;;;;4830564;28;19920;-45
2022/06/27 11:20:06;;;;;;;;;;;;;;;;;;4854829;28;19951;-47
2022/06/27 11:22:31;;;;;;;;;;;;;;;;;;4819883;28;19990;-44
2022/06/27 11:24:57;;;;;;;;;;;;;;;;;;4784339;28;21430;-46
2022/06/27 11:27:22;;;;;;;;;;;;;;;;;;4771319;28;19920;-45
2022/06/27 11:32:31;;;;;;;;;;;;;;;;;;4462498;28;25145;-46
2022/06/27 11:34:56;;;;;;;;;;;;;;;;;;4587339;28;24161;-46
2022/06/27 11:37:22;;;;;;;;;;;;;;;;;;4611154;28;33098;-44
2022/06/27 11:39:47;;;;;;;;;;;;;;;;;;4734631;28;26094;-45
2022/06/27 11:42:12;;;;;;;;;;;;;;;;;;4778872;28;34779;-44
2022/06/27 11:44:37;;;;;;;;;;;;;;;;;;4754423;28;36068;-46
2022/06/27 11:47:02;;;;;;;;;;;;;;;;;;4813954;28;28379;-45
2022/06/27 11:49:27;;;;;;;;;;;;;;;;;;4788943;28;25331;-46
2022/06/27 11:51:52;;;;;;;;;;;;;;;;;;4789240;28;28696;-46
2022/06/27 11:54:18;;;;;;;;;;;;;;;;;;4792504;28;31222;-46
2022/06/27 11:56:43;;;;;;;;;;;;;;;;;;4793546;28;32501;-46
2022/06/27 11:59:08;;;;;;;;;;;;;;;;;;4796242;28;34145;-46
2022/06/27 12:01:33;;;;;;;;;;;;;;;;;;4800196;28;26764;-45
2022/06/27 12:03:58;;;;;;;;;;;;;;;;;;4763943;28;28950;-45
2022/06/27 12:06:23;;;;;;;;;;;;;;;;;;4775265;28;21610;-46
2022/06/27 12:08:49;;;;;;;;;;;;;;;;;;4772157;28;27798;-45
2022/06/27 12:11:17;;;;;;;;;;;;;;;;;;4780501;28;28453;-47
2022/06/27 12:13:42;;;;;;;;;;;;;;;;;;4770853;28;20488;-47
2022/06/27 12:16:07;;;;;;;;;;;;;;;;;;4764512;28;22604;-46
2022/06/27 12:18:32;;;;;;;;;;;;;;;;;;4769703;28;20798;-48
2022/06/27 12:20:58;;;;;;;;;;;;;;;;;;4660150;28;21712;-48
2022/06/27 12:23:23;;;;;;;;;;;;;;;;;;4612318;28;25198;-44
2022/06/27 12:25:48;;;;;;;;;;;;;;;;;;4591836;28;25056;-48
2022/06/27 12:28:14;;;;;;;;;;;;;;;;;;4723888;28;29872;-50
2022/06/27 12:30:39;;;;;;;;;;;;;;;;;;4816756;28;20531;-49
2022/06/27 12:33:05;;;;;;;;;;;;;;;;;;4822882;28;19928;-48
2022/06/27 12:35:31;;;;;;;;;;;;;;;;;;4839736;28;21264;-48
2022/06/27 12:37:56;;;;;;;;;;;;;;;;;;4848905;28;20509;-46
2022/06/27 12:40:21;;;;;;;;;;;;;;;;;;4854185;28;23169;-45
2022/06/27 12:42:46;;;;;;;;;;;;;;;;;;4855071;28;21572;-48
2022/06/27 12:45:11;;;;;;;;;;;;;;;;;;4883311;28;26299;-46
2022/06/27 12:47:36;;;;;;;;;;;;;;;;;;4851052;28;23001;-46
2022/06/27 12:50:01;;;;;;;;;;;;;;;;;;4810583;28;22356;-47
2022/06/27 12:52:26;;;;;;;;;;;;;;;;;;4813426;28;25871;-51
2022/06/27 12:54:51;;;;;;;;;;;;;;;;;;4846155;28;23319;-47
2022/06/27 12:57:17;;;;;;;;;;;;;;;;;;4860892;28;25541;-48
2022/06/27 12:59:42;;;;;;;;;;;;;;;;;;4870241;28;19920;-48
2022/06/27 13:02:07;;;;;;;;;;;;;;;;;;4828336;28;20046;-49
2022/06/27 13:04:33;;;;;;;;;;;;;;;;;;4833676;28;19921;-47
2022/06/27 13:06:58;;;;;;;;;;;;;;;;;;4811996;28;20678;-48
2022/06/27 13:09:23;;;;;;;;;;;;;;;;;;4803739;28;21979;-46
2022/06/27 13:11:48;;;;;;;;;;;;;;;;;;4684833;28;20206;-48
2022/06/27 13:14:13;;;;;;;;;;;;;;;;;;4656952;28;19931;-48
2022/06/27 13:16:39;;;;;;;;;;;;;;;;;;4756596;28;19920;-46
2022/06/27 13:19:04;;;;;;;;;;;;;;;;;;4858633;28;21530;-48
2022/06/27 13:21:29;;;;;;;;;;;;;;;;;;4899058;28;21538;-46
2022/06/27 13:23:57;;;;;;;;;;;;;;;;;;4926479;28;19920;-48
2022/06/27 13:26:22;;;;;;;;;;;;;;;;;;4948136;28;20105;-48
2022/06/27 13:28:47;;;;;;;;;;;;;;;;;;4972043;28;19932;-46
2022/06/27 13:31:12;;;;;;;;;;;;;;;;;;4984868;28;19920;-47
2022/06/27 13:33:37;;;;;;;;;;;;;;;;;;4989241;28;19920;-45
2022/06/27 13:36:05;;;;;;;;;;;;;;;;;;5001750;28;20054;-48
2022/06/27 13:38:32;;;;;;;;;;;;;;;;;;4998926;28;19920;-48
2022/06/27 13:40:57;;;;;;;;;;;;;;;;;;5002673;28;19921;-46
2022/06/27 13:43:24;;;;;;;;;;;;;;;;;;5009634;28;19920;-47
2022/06/27 13:45:49;;;;;;;;;;;;;;;;;;5007132;28;21690;-48
2022/06/27 13:48:14;;;;;;;;;;;;;;;;;;5006803;28;20013;-48
2022/06/27 13:50:39;;;;;;;;;;;;;;;;;;4991949;28;19912;-47
2022/06/27 13:53:04;;;;;;;;;;;;;;;;;;5003440;28;19920;-48
2022/06/27 13:55:30;;;;;;;;;;;;;;;;;;4999344;28;19969;-47
2022/06/27 13:57:55;;;;;;;;;;;;;;;;;;4984269;28;20542;-47
2022/06/27 14:00:20;;;;;;;;;;;;;;;;;;5011504;22;19932;-85
2022/06/27 14:02:45;;;;;;;;;;;;;;;;;;5044611;28;21699;-86
2022/06/27 14:05:10;;;;;;;;;;;;;;;;;;5044637;28;20005;-85
2022/06/27 14:07:44;;;;;;;;;;;;;;;;;;5009225;28;19920;-85
2022/06/27 14:10:09;;;;;;;;;;;;;;;;;;5060126;28;20546;-86
2022/06/27 14:12:34;;;;;;;;;;;;;;;;;;5074418;28;20011;-86
2022/06/27 14:14:59;;;;;;;;;;;;;;;;;;5079571;28;19934;-85
2022/06/27 14:17:24;;;;;;;;;;;;;;;;;;5079136;28;19916;-86
2022/06/27 14:19:49;;;;;;;;;;;;;;;;;;5085174;28;19919;-86
2022/06/27 14:22:14;;;;;;;;;;;;;;;;;;5082361;28;20396;-86
2022/06/27 14:24:40;;;;;;;;;;;;;;;;;;5082108;28;20431;-85
2022/06/27 14:27:05;;;;;;;;;;;;;;;;;;5092877;28;20055;-86
2022/06/27 14:29:30;;;;;;;;;;;;;;;;;;5082294;28;19912;-86
2022/06/27 14:31:55;;;;;;;;;;;;;;;;;;5082778;28;19959;-86
2022/06/27 14:34:20;;;;;;;;;;;;;;;;;;5088060;28;19984;-85
2022/06/27 14:36:46;;;;;;;;;;;;;;;;;;5084630;28;19912;-86
2022/06/27 14:39:11;;;;;;;;;;;;;;;;;;5084346;28;19962;-85
2022/06/27 14:41:37;;;;;;;;;;;;;;;;;;5088572;28;19995;-86
2022/06/27 14:44:02;;;;;;;;;;;;;;;;;;5087035;28;20576;-86
2022/06/27 14:46:27;;;;;;;;;;;;;;;;;;5086195;28;20352;-86
2022/06/27 14:48:52;;;;;;;;;;;;;;;;;;5087500;28;19912;-86
2022/06/27 14:51:17;;;;;;;;;;;;;;;;;;5082775;28;19928;-86
2022/06/27 14:53:42;;;;;;;;;;;;;;;;;;5090385;28;20397;-86
2022/06/27 14:56:08;;;;;;;;;;;;;;;;;;5089539;28;20324;-86
2022/06/27 14:58:33;;;;;;;;;;;;;;;;;;5093370;28;19916;-87
2022/06/27 15:01:01;;;;;;;;;;;;;;;;;;5096296;28;20138;-87
2022/06/27 15:03:26;;;;;;;;;;;;;;;;;;5092247;28;19912;-86
2022/06/27 15:05:51;;;;;;;;;;;;;;;;;;5091943;28;19912;-87
2022/06/27 15:08:17;;;;;;;;;;;;;;;;;;5090186;28;19923;-87
2022/06/27 15:13:30;;;;;;;;;;;;;;;;;;5072858;28;19908;-87
2022/06/27 15:15:56;;;;;;;;;;;;;;;;;;5074682;28;19932;-87
2022/06/27 15:18:21;;;;;;;;;;;;;;;;;;5065954;28;19912;-86
2022/06/27 15:20:46;;;;;;;;;;;;;;;;;;5066538;28;19912;-87
2022/06/27 15:23:11;;;;;;;;;;;;;;;;;;5072663;28;19916;-87
2022/06/27 15:25:36;;;;;;;;;;;;;;;;;;5091395;28;19957;-87
2022/06/27 15:28:01;;;;;;;;;;;;;;;;;;5092924;28;20255;-87
2022/06/27 15:30:28;;;;;;;;;;;;;;;;;;5093589;28;19912;-87
2022/06/27 15:32:54;;;;;;;;;;;;;;;;;;5090085;28;19912;-87
2022/06/27 15:35:19;;;;;;;;;;;;;;;;;;5088872;28;19920;-87
2022/06/27 15:37:44;;;;;;;;;;;;;;;;;;5100010;28;20011;-87
2022/06/27 15:40:09;;;;;;;;;;;;;;;;;;5100430;28;19912;-87
2022/06/27 15:42:34;;;;;;;;;;;;;;;;;;5093502;28;20007;-87
2022/06/27 15:44:59;;;;;;;;;;;;;;;;;;5098239;28;20286;-86
2022/06/27 15:47:25;;;;;;;;;;;;;;;;;;5097232;28;19912;-86
2022/06/27 15:49:50;;;;;;;;;;;;;;;;;;5093418;28;19935;-87
2022/06/27 15:52:15;;;;;;;;;;;;;;;;;;5084651;28;19912;-87
2022/06/27 15:54:42;;;;;;;;;;;;;;;;;;5098169;28;19931;-86
2022/06/27 15:57:07;;;;;;;;;;;;;;;;;;5096601;28;20347;-87
2022/06/27 15:59:32;;;;;;;;;;;;;;;;;;5107183;28;19919;-87
2022/06/27 16:01:58;;;;;;;;;;;;;;;;;;5092994;28;20031;-87
2022/06/27 16:04:24;;;;;;;;;;;;;;;;;;5093772;28;20367;-87
2022/06/27 16:06:49;;;;;;;;;;;;;;;;;;5099650;28;19916;-87
2022/06/27 16:09:14;;;;;;;;;;;;;;;;;;5099074;28;19915;-87
2022/06/27 16:11:40;;;;;;;;;;;;;;;;;;5098433;28;19912;-87
2022/06/27 16:14:05;;;;;;;;;;;;;;;;;;5099068;28;20011;-87
2022/06/27 16:16:30;;;;;;;;;;;;;;;;;;5098964;28;20002;-87
2022/06/27 16:18:55;;;;;;;;;;;;;;;;;;5099004;28;19916;-87
2022/06/27 16:21:20;;;;;;;;;;;;;;;;;;5099498;28;19915;-87
2022/06/27 16:23:45;;;;;;;;;;;;;;;;;;5096345;28;19912;-87
2022/06/27 16:26:10;;;;;;;;;;;;;;;;;;5080967;28;19951;-87
2022/06/27 16:28:35;;;;;;;;;;;;;;;;;;5088961;28;19912;-87
2022/06/27 16:33:45;;;;;;;;;;;;;;;;;;5099783;28;19915;-87
2022/06/27 16:36:10;;;;;;;;;;;;;;;;;;5099696;28;19919;-87
2022/06/27 16:38:35;;;;;;;;;;;;;;;;;;5099078;28;20351;-87
2022/06/27 16:41:01;;;;;;;;;;;;;;;;;;5082136;28;19913;-87